createdAt,value
2022-12-18T00:01:46.315Z,102046.41
2022-12-18T00:04:48.416Z,102047.38
2022-12-18T00:07:50.573Z,102055.34
2022-12-18T00:10:52.624Z,102058.56
2022-12-18T00:13:57.562Z,102048.38
2022-12-18T00:17:01.837Z,102064.31
2022-12-18T00:20:04.694Z,102081.09
2022-12-18T00:23:08.028Z,102099.56
2022-12-18T00:26:19.882Z,102102.31
2022-12-18T00:29:21.811Z,102097.75
2022-12-18T00:32:24.127Z,102109.41
2022-12-18T00:35:26.260Z,102119.94
2022-12-18T00:38:30.010Z,102109.00
2022-12-18T00:41:50.880Z,102118.78
2022-12-18T00:44:53.021Z,102130.28
2022-12-18T00:47:55.739Z,102118.47
2022-12-18T00:50:58.818Z,102133.69
2022-12-18T00:54:01.033Z,102118.91
2022-12-18T00:57:03.829Z,102125.03
2022-12-18T01:00:09.013Z,102130.56
2022-12-18T01:03:15.147Z,102123.59
2022-12-18T01:06:19.641Z,102120.75
2022-12-18T01:09:22.288Z,102134.66
2022-12-18T01:12:24.475Z,102145.47
2022-12-18T01:15:27.162Z,102147.47
2022-12-18T01:18:29.279Z,102141.44
2022-12-18T01:21:34.196Z,102147.69
2022-12-18T01:24:39.640Z,102139.38
2022-12-18T01:27:41.798Z,102155.84
2022-12-18T01:30:43.771Z,102154.19
2022-12-18T01:33:46.756Z,102144.94
2022-12-18T01:36:48.803Z,102157.41
2022-12-18T01:39:51.216Z,102169.53
2022-12-18T01:42:54.533Z,102141.50
2022-12-18T01:46:00.336Z,102152.44
2022-12-18T01:49:02.928Z,102147.06
2022-12-18T01:52:05.016Z,102157.88
2022-12-18T01:55:09.409Z,102150.50
2022-12-18T01:58:11.526Z,102169.69
2022-12-18T02:01:15.139Z,102158.16
2022-12-18T02:04:21.423Z,102183.59
2022-12-18T02:07:33.119Z,102181.16
2022-12-18T02:10:54.551Z,102186.97
2022-12-18T02:14:31.509Z,102186.97
2022-12-18T02:17:48.538Z,102191.91
2022-12-18T02:21:16.382Z,102196.84
2022-12-18T02:24:41.357Z,102201.06
2022-12-18T02:27:47.651Z,102199.66
2022-12-18T02:30:54.560Z,102211.44
2022-12-18T02:34:02.629Z,102220.22
2022-12-18T02:37:13.490Z,102211.28
2022-12-18T02:40:18.317Z,102227.84
2022-12-18T02:43:20.746Z,102214.91
2022-12-18T02:46:42.875Z,102235.09
2022-12-18T02:50:11.316Z,102240.81
2022-12-18T02:53:24.879Z,102229.84
2022-12-18T02:56:36.286Z,102243.34
2022-12-18T02:59:48.928Z,102243.75
2022-12-18T03:03:03.327Z,102256.06
2022-12-18T03:06:38.590Z,102258.50
2022-12-18T03:09:44.910Z,102257.88
2022-12-18T03:12:55.814Z,102270.06
2022-12-18T03:16:00.810Z,102275.75
2022-12-18T03:19:07.964Z,102263.88
2022-12-18T03:22:11.801Z,102292.22
2022-12-18T03:25:22.634Z,102288.69
2022-12-18T03:28:35.092Z,102286.84
2022-12-18T03:31:44.129Z,102292.41
2022-12-18T03:34:50.661Z,102289.53
2022-12-18T03:37:55.740Z,102295.75
2022-12-18T03:41:08.829Z,102318.28
2022-12-18T03:44:38.605Z,102323.25
2022-12-18T03:48:02.743Z,102337.31
2022-12-18T03:51:23.708Z,102322.31
2022-12-18T03:54:28.463Z,102314.13
2022-12-18T03:57:39.896Z,102327.38
2022-12-18T04:00:44.756Z,102331.91
2022-12-18T04:03:51.287Z,102349.88
2022-12-18T04:06:56.481Z,102363.53
2022-12-18T04:10:02.078Z,102352.38
2022-12-18T04:13:06.282Z,102366.25
2022-12-18T04:16:10.655Z,102391.69
2022-12-18T04:19:16.757Z,102389.19
2022-12-18T04:22:21.705Z,102378.47
2022-12-18T04:25:29.394Z,102401.69
2022-12-18T04:28:41.608Z,102393.59
2022-12-18T04:31:44.648Z,102392.91
2022-12-18T04:34:47.390Z,102380.69
2022-12-18T04:37:49.510Z,102376.50
2022-12-18T04:40:51.989Z,102409.06
2022-12-18T04:44:00.490Z,102411.91
2022-12-18T04:47:02.674Z,102404.34
2022-12-18T04:50:05.371Z,102411.13
2022-12-18T04:53:07.758Z,102423.94
2022-12-18T04:56:12.903Z,102421.09
2022-12-18T04:59:14.946Z,102432.00
2022-12-18T05:02:17.190Z,102441.97
2022-12-18T05:05:19.255Z,102458.94
2022-12-18T05:08:21.497Z,102454.03
2022-12-18T05:11:23.699Z,102463.22
2022-12-18T05:14:26.048Z,102463.75
2022-12-18T05:17:28.062Z,102482.19
2022-12-18T05:20:30.224Z,102467.94
2022-12-18T05:23:37.602Z,102493.16
2022-12-18T05:26:40.180Z,102496.66
2022-12-18T05:29:43.699Z,102491.16
2022-12-18T05:32:45.767Z,102496.94
2022-12-18T05:35:56.181Z,102500.34
2022-12-18T05:38:58.255Z,102500.38
2022-12-18T05:42:00.368Z,102533.31
2022-12-18T05:45:02.471Z,102525.72
2022-12-18T05:48:05.285Z,102535.13
2022-12-18T05:51:15.640Z,102542.28
2022-12-18T05:54:17.723Z,102554.13
2022-12-18T05:57:19.778Z,102547.00
2022-12-18T06:00:21.846Z,102555.44
2022-12-18T06:03:26.837Z,102561.28
2022-12-18T06:06:31.361Z,102569.41
2022-12-18T06:09:33.609Z,102583.28
2022-12-18T06:12:35.801Z,102600.53
2022-12-18T06:15:38.649Z,102605.06
2022-12-18T06:18:40.710Z,102604.16
2022-12-18T06:21:42.951Z,102606.91
2022-12-18T06:24:44.907Z,102605.97
2022-12-18T06:27:49.183Z,102608.13
2022-12-18T06:30:51.652Z,102616.38
2022-12-18T06:33:53.898Z,102625.66
2022-12-18T06:36:56.056Z,102595.41
2022-12-18T06:39:58.264Z,102635.31
2022-12-18T06:43:00.420Z,102638.09
2022-12-18T06:46:03.229Z,102640.03
2022-12-18T06:49:05.453Z,102656.19
2022-12-18T06:52:07.654Z,102656.31
2022-12-18T06:55:09.761Z,102653.03
2022-12-18T06:58:11.710Z,102672.22
2022-12-18T07:01:15.105Z,102662.03
2022-12-18T07:04:17.251Z,102670.28
2022-12-18T07:07:20.742Z,102676.47
2022-12-18T07:10:25.962Z,102671.63
2022-12-18T07:13:28.356Z,102684.22
2022-12-18T07:16:30.662Z,102678.28
2022-12-18T07:19:37.396Z,102690.47
2022-12-18T07:22:41.421Z,102711.88
2022-12-18T07:25:43.884Z,102686.94
2022-12-18T07:28:47.717Z,102687.19
2022-12-18T07:31:52.232Z,102670.13
2022-12-18T07:34:54.246Z,102695.09
2022-12-18T07:37:56.392Z,102704.09
2022-12-18T07:41:07.446Z,102714.19
2022-12-18T07:44:13.673Z,102713.59
2022-12-18T07:47:20.999Z,102721.63
2022-12-18T07:50:27.447Z,102711.97
2022-12-18T07:53:37.177Z,102717.94
2022-12-18T07:56:39.752Z,102695.91
2022-12-18T07:59:41.887Z,102707.41
2022-12-18T08:02:44.229Z,102736.78
2022-12-18T08:05:49.423Z,102738.50
2022-12-18T08:08:55.677Z,102746.13
2022-12-18T08:11:59.713Z,102749.44
2022-12-18T08:15:02.073Z,102764.19
2022-12-18T08:18:05.983Z,102741.72
2022-12-18T08:21:17.390Z,102761.59
2022-12-18T08:24:20.852Z,102774.59
2022-12-18T08:27:30.415Z,102769.97
2022-12-18T08:30:32.728Z,102781.94
2022-12-18T08:33:36.055Z,102782.03
2022-12-18T08:36:38.184Z,102763.88
2022-12-18T08:39:40.291Z,102772.97
2022-12-18T08:43:02.969Z,102761.72
2022-12-18T08:46:09.292Z,102779.34
2022-12-18T08:49:13.764Z,102775.03
2022-12-18T08:52:16.273Z,102765.38
2022-12-18T08:55:20.279Z,102776.81
2022-12-18T08:58:25.657Z,102789.47
2022-12-18T09:01:29.690Z,102752.66
2022-12-18T09:04:31.917Z,102793.19
2022-12-18T09:07:41.786Z,102774.84
2022-12-18T09:10:49.083Z,102804.31
2022-12-18T09:13:51.291Z,102801.34
2022-12-18T09:16:53.386Z,102791.56
2022-12-18T09:19:55.702Z,102805.41
2022-12-18T09:23:09.910Z,102809.63
2022-12-18T09:26:13.412Z,102806.78
2022-12-18T09:29:18.466Z,102818.06
2022-12-18T09:32:22.733Z,102814.94
2022-12-18T09:35:25.738Z,102825.84
2022-12-18T09:38:27.818Z,102828.91
2022-12-18T09:41:52.025Z,102829.41
2022-12-18T09:44:55.551Z,102834.66
2022-12-18T09:48:05.148Z,102829.06
2022-12-18T09:51:17.295Z,102823.59
2022-12-18T09:54:25.714Z,102810.19
2022-12-18T09:57:35.827Z,102831.41
2022-12-18T10:04:25.681Z,102833.53
2022-12-18T10:07:49.328Z,102837.38
2022-12-18T10:11:17.139Z,102840.28
2022-12-18T10:14:45.538Z,102846.75
2022-12-18T10:18:18.776Z,102844.63
2022-12-18T10:21:42.767Z,102870.16
2022-12-18T10:24:56.616Z,102890.44
2022-12-18T10:28:14.613Z,102885.91
2022-12-18T10:31:20.397Z,102886.91
2022-12-18T10:34:26.045Z,102878.56
2022-12-18T10:37:31.042Z,102886.88
2022-12-18T10:41:12.615Z,102889.69
2022-12-18T10:44:37.738Z,102862.25
2022-12-18T10:47:50.917Z,102913.72
2022-12-18T10:51:12.896Z,102917.25
2022-12-18T10:54:24.326Z,102911.53
2022-12-18T10:57:42.999Z,102920.75
2022-12-18T11:00:45.893Z,102906.91
2022-12-18T11:04:02.664Z,102907.78
2022-12-18T11:07:10.015Z,102934.31
2022-12-18T11:10:19.913Z,102927.75
2022-12-18T11:13:25.107Z,102933.88
2022-12-18T11:16:29.032Z,102927.88
2022-12-18T11:19:40.041Z,102938.19
2022-12-18T11:22:56.869Z,102935.25
2022-12-18T11:26:02.747Z,102936.72
2022-12-18T11:29:18.223Z,102940.59
2022-12-18T11:32:33.776Z,102924.88
2022-12-18T11:35:44.645Z,102940.16
2022-12-18T11:38:48.240Z,102937.94
2022-12-18T11:42:12.789Z,102949.16
2022-12-18T11:45:15.505Z,102928.69
2022-12-18T11:48:33.635Z,102938.31
2022-12-18T11:51:46.702Z,102931.72
2022-12-18T11:54:52.871Z,102950.06
2022-12-18T11:58:04.248Z,102947.47
2022-12-18T12:01:27.454Z,102963.72
2022-12-18T12:04:44.901Z,102977.72
2022-12-18T12:08:07.514Z,102962.22
2022-12-18T12:11:20.370Z,102994.56
2022-12-18T12:14:40.463Z,102995.59
2022-12-18T12:17:45.928Z,102996.31
2022-12-18T12:20:47.993Z,103003.28
2022-12-18T12:24:25.553Z,102997.78
2022-12-18T12:27:38.398Z,103001.53
2022-12-18T12:31:00.871Z,103010.41
2022-12-18T12:34:17.375Z,103011.56
2022-12-18T12:37:47.360Z,103006.72
2022-12-18T12:41:02.437Z,103022.09
2022-12-18T12:44:11.618Z,103025.50
2022-12-18T12:47:21.842Z,103020.97
2022-12-18T12:50:24.856Z,103022.34
2022-12-18T12:53:37.483Z,103028.63
2022-12-18T12:56:49.599Z,103033.69
2022-12-18T13:00:07.678Z,103054.16
2022-12-18T13:03:22.301Z,103043.03
2022-12-18T13:06:51.948Z,103051.34
2022-12-18T13:10:17.201Z,103063.78
2022-12-18T13:13:23.249Z,103063.09
2022-12-18T13:16:28.868Z,103065.91
2022-12-18T13:19:32.433Z,103067.44
2022-12-18T13:22:43.134Z,103069.16
2022-12-18T13:25:45.243Z,103066.41
2022-12-18T13:28:47.375Z,103075.56
2022-12-18T13:31:49.457Z,103081.81
2022-12-18T13:35:19.705Z,103083.00
2022-12-18T13:38:33.731Z,103090.09
2022-12-18T13:41:35.823Z,103086.25
2022-12-18T13:44:43.103Z,103091.38
2022-12-18T13:47:45.506Z,103084.72
2022-12-18T13:51:01.799Z,103113.50
2022-12-18T13:54:21.311Z,103092.28
2022-12-18T13:57:32.895Z,103123.63
2022-12-18T14:00:35.735Z,103120.38
2022-12-18T14:03:38.978Z,103096.38
2022-12-18T14:06:41.588Z,103107.25
2022-12-18T14:09:50.109Z,103111.44
2022-12-18T14:13:00.365Z,103099.81
2022-12-18T14:16:08.681Z,103119.75
2022-12-18T14:19:16.977Z,103130.75
2022-12-18T14:22:31.931Z,103097.53
2022-12-18T14:25:36.439Z,103120.06
2022-12-18T14:28:45.397Z,103129.00
2022-12-18T14:31:47.996Z,103124.69
2022-12-18T14:34:52.958Z,103146.81
2022-12-18T14:37:55.368Z,103150.06
2022-12-18T14:41:20.694Z,103144.25
2022-12-18T14:44:22.822Z,103160.88
2022-12-18T14:47:24.902Z,103159.06
2022-12-18T14:50:27.661Z,103165.88
2022-12-18T14:53:54.420Z,103160.47
2022-12-18T14:57:24.454Z,103182.78
2022-12-18T15:00:27.282Z,103183.75
2022-12-18T15:03:29.612Z,103165.31
2022-12-18T15:06:31.727Z,103188.34
2022-12-18T15:09:34.145Z,103187.78
2022-12-18T15:12:42.724Z,103159.47
2022-12-18T15:15:48.669Z,103198.63
2022-12-18T15:18:50.869Z,103199.84
2022-12-18T15:21:53.001Z,103179.94
2022-12-18T15:25:00.047Z,103198.47
2022-12-18T15:28:02.341Z,103175.59
2022-12-18T15:31:24.230Z,103193.06
2022-12-18T15:34:30.939Z,103181.75
2022-12-18T15:37:32.956Z,103182.66
2022-12-18T15:40:34.979Z,103188.47
2022-12-18T15:43:39.597Z,103178.44
2022-12-18T15:46:41.913Z,103181.97
2022-12-18T15:49:44.092Z,103184.06
2022-12-18T15:52:48.848Z,103197.50
2022-12-18T15:56:09.503Z,103184.28
2022-12-18T15:59:15.757Z,103206.75
2022-12-18T16:02:20.225Z,103219.69
2022-12-18T16:05:24.416Z,103196.66
2022-12-18T16:08:26.487Z,103229.50
2022-12-18T16:11:39.819Z,103238.78
2022-12-18T16:14:42.289Z,103235.25
2022-12-18T16:17:45.419Z,103251.53
2022-12-18T16:20:49.949Z,103242.50
2022-12-18T16:23:52.059Z,103260.88
2022-12-18T16:26:55.850Z,103275.16
2022-12-18T16:29:59.735Z,103287.25
2022-12-18T16:33:02.756Z,103297.91
2022-12-18T16:36:04.974Z,103294.78
2022-12-18T16:39:07.271Z,103287.41
2022-12-18T16:42:20.790Z,103263.34
2022-12-18T16:45:24.593Z,103306.59
2022-12-18T16:48:28.177Z,103293.56
2022-12-18T16:51:31.733Z,103283.97
2022-12-18T16:54:39.547Z,103307.59
2022-12-18T16:57:41.568Z,103330.66
2022-12-18T17:00:50.973Z,103332.25
2022-12-18T17:03:58.677Z,103338.50
2022-12-18T17:07:00.864Z,103329.53
2022-12-18T17:10:03.277Z,103347.06
2022-12-18T17:13:05.842Z,103337.72
2022-12-18T17:16:12.395Z,103344.09
2022-12-18T17:19:17.666Z,103351.41
2022-12-18T17:22:21.453Z,103357.56
2022-12-18T17:25:23.557Z,103345.94
2022-12-18T17:28:28.281Z,103367.53
2022-12-18T17:31:35.289Z,103303.94
2022-12-18T17:34:37.898Z,103365.91
2022-12-18T17:37:39.970Z,103369.59
2022-12-18T17:40:46.233Z,103365.31
2022-12-18T17:44:07.762Z,103351.59
2022-12-18T17:47:12.254Z,103373.09
2022-12-18T17:50:16.336Z,103370.88
2022-12-18T17:53:18.658Z,103350.00
2022-12-18T17:56:23.497Z,103368.44
2022-12-18T17:59:25.802Z,103370.00
2022-12-18T18:02:29.497Z,103371.94
2022-12-18T18:05:32.324Z,103371.13
2022-12-18T18:08:35.641Z,103368.75
2022-12-18T18:11:58.208Z,103380.41
2022-12-18T18:15:00.336Z,103387.31
2022-12-18T18:18:05.902Z,103405.97
2022-12-18T18:21:09.063Z,103400.16
2022-12-18T18:24:17.770Z,103412.41
2022-12-18T18:27:20.128Z,103406.13
2022-12-18T18:30:22.630Z,103417.59
2022-12-18T18:33:24.850Z,103415.72
2022-12-18T18:36:27.578Z,103417.16
2022-12-18T18:39:29.774Z,103417.63
2022-12-18T18:42:32.834Z,103429.72
2022-12-18T18:45:34.935Z,103404.56
2022-12-18T18:48:37.868Z,103430.78
2022-12-18T18:51:42.521Z,103426.50
2022-12-18T18:55:11.165Z,103455.69
2022-12-18T18:58:06.849Z,103451.50
2022-12-18T19:01:13.225Z,103443.09
2022-12-18T19:04:15.391Z,103436.75
2022-12-18T19:07:26.554Z,103460.72
2022-12-18T19:10:33.824Z,103460.94
2022-12-18T19:13:37.128Z,103436.31
2022-12-18T19:16:44.580Z,103462.19
2022-12-18T19:19:48.162Z,103450.94
2022-12-18T19:22:55.025Z,103453.78
2022-12-18T19:26:28.831Z,103470.22
2022-12-18T19:29:29.728Z,103482.66
2022-12-18T19:32:31.965Z,103482.50
2022-12-18T19:35:34.120Z,103494.78
2022-12-18T19:38:36.437Z,103481.56
2022-12-18T19:41:39.070Z,103495.59
2022-12-18T19:44:41.891Z,103481.38
2022-12-18T19:47:44.421Z,103486.44
2022-12-18T19:50:50.633Z,103478.06
2022-12-18T19:53:58.967Z,103496.19
2022-12-18T19:57:03.083Z,103499.34
2022-12-18T20:00:05.801Z,103510.97
2022-12-18T20:03:24.267Z,103500.75
2022-12-18T20:06:51.731Z,103506.31
2022-12-18T20:13:32.134Z,103526.44
2022-12-18T20:17:23.233Z,103528.91
2022-12-18T20:20:26.002Z,103541.38
2022-12-18T20:23:28.225Z,103542.47
2022-12-18T20:26:31.038Z,103545.59
2022-12-18T20:29:33.827Z,103531.94
2022-12-18T20:32:37.239Z,103557.88
2022-12-18T20:35:39.499Z,103554.41
2022-12-18T20:38:42.192Z,103547.28
2022-12-18T20:41:46.405Z,103533.28
2022-12-18T20:44:50.972Z,103543.03
2022-12-18T20:47:56.097Z,103542.88
2022-12-18T20:51:06.691Z,103549.06
2022-12-18T20:54:11.942Z,103554.16
2022-12-18T20:57:17.542Z,103564.13
2022-12-18T21:00:21.356Z,103571.25
2022-12-18T21:03:27.119Z,103547.22
2022-12-18T21:06:29.660Z,103545.34
2022-12-18T21:09:38.001Z,103556.53
2022-12-18T21:13:00.112Z,103549.19
2022-12-18T21:16:07.922Z,103544.72
2022-12-18T21:19:25.815Z,103534.91
2022-12-18T21:22:30.593Z,103555.28
2022-12-18T21:25:33.595Z,103561.56
2022-12-18T21:28:36.162Z,103574.75
2022-12-18T21:31:39.297Z,103554.00
2022-12-18T21:34:47.861Z,103570.41
2022-12-18T21:37:50.437Z,103571.31
2022-12-18T21:40:55.496Z,103581.56
2022-12-18T21:44:15.389Z,103544.97
2022-12-18T21:47:22.272Z,103566.84
2022-12-18T21:50:25.786Z,103589.34
2022-12-18T21:53:28.666Z,103584.63
2022-12-18T21:56:56.992Z,103592.16
2022-12-18T21:59:59.099Z,103580.13
2022-12-18T22:03:17.930Z,103588.88
2022-12-18T22:06:22.825Z,103599.22
2022-12-18T22:09:25.742Z,103596.06
2022-12-18T22:12:43.349Z,103588.22
2022-12-18T22:15:47.255Z,103602.72
2022-12-18T22:18:50.008Z,103614.69
2022-12-18T22:21:53.088Z,103606.00
2022-12-18T22:24:55.816Z,103595.59
2022-12-18T22:28:25.224Z,103607.59
2022-12-18T22:31:27.331Z,103600.28
2022-12-18T22:34:34.224Z,103619.72
2022-12-18T22:37:38.568Z,103594.13
2022-12-18T22:40:41.097Z,103605.19
2022-12-18T22:43:43.336Z,103595.66
2022-12-18T22:46:53.065Z,103625.59
2022-12-18T22:50:07.018Z,103603.56
2022-12-18T22:53:09.422Z,103606.25
2022-12-18T22:56:20.126Z,103590.69
2022-12-18T22:59:24.071Z,103616.63
2022-12-18T23:02:28.999Z,103620.50
2022-12-18T23:05:31.533Z,103631.63
2022-12-18T23:08:34.872Z,103648.97
2022-12-18T23:11:37.507Z,103626.72
2022-12-18T23:14:39.998Z,103622.91
2022-12-18T23:17:44.472Z,103635.47
2022-12-18T23:20:48.687Z,103625.63
2022-12-18T23:23:51.008Z,103647.78
2022-12-18T23:26:53.280Z,103639.00
2022-12-18T23:29:57.146Z,103632.69
2022-12-18T23:33:01.231Z,103649.09
2022-12-18T23:36:04.831Z,103665.06
2022-12-18T23:39:08.699Z,103663.91
2022-12-18T23:42:12.898Z,103665.53
2022-12-18T23:45:18.135Z,103666.03
2022-12-18T23:48:22.107Z,103654.97
2022-12-18T23:51:28.476Z,103675.19
2022-12-18T23:54:33.514Z,103671.31
2022-12-18T23:57:36.255Z,103696.44
